createdAt,value
2019-01-16T00:03:01.149Z,100919.74
2019-01-16T00:06:09.666Z,100914.16
2019-01-16T00:09:10.723Z,100921.08
2019-01-16T00:12:19.179Z,100919.38
2019-01-16T00:15:11.503Z,100913.02
2019-01-16T00:18:04.171Z,100910.45
2019-01-16T00:21:12.647Z,100911.31
2019-01-16T00:24:21.013Z,100911.31
2019-01-16T00:27:21.905Z,100904.87
2019-01-16T00:33:39.803Z,100898.45
2019-01-16T00:36:48.259Z,100889.79
2019-01-16T00:39:56.766Z,100880.36
2019-01-16T00:42:57.524Z,100879.08
2019-01-16T00:46:06.245Z,100870.48
2019-01-16T00:49:04.366Z,100873.95
2019-01-16T00:51:56.650Z,100867.48
2019-01-16T00:54:44.224Z,100877.83
2019-01-16T00:57:42.448Z,100872.69
2019-01-16T01:00:34.835Z,100876.98
2019-01-16T01:03:33.237Z,100866.63
2019-01-16T01:06:16.839Z,100872.25
2019-01-16T01:09:08.938Z,100867.48
2019-01-16T01:11:49.885Z,100867.08
2019-01-16T01:14:36.264Z,100870.94
2019-01-16T01:17:27.875Z,100867.48
2019-01-16T01:20:20.080Z,100868.33
2019-01-16T01:23:18.430Z,100867.91
2019-01-16T01:26:02.803Z,100859.27
2019-01-16T01:28:42.829Z,100855.86
2019-01-16T01:31:41.083Z,100862.77
2019-01-16T01:34:33.136Z,100853.75
2019-01-16T01:37:40.076Z,100861.63
2019-01-16T01:40:48.587Z,100859.51
2019-01-16T01:43:50.189Z,100854.39
2019-01-16T01:46:58.667Z,100868.55
2019-01-16T01:49:40.119Z,100870.69
2019-01-16T01:52:28.313Z,100855.63
2019-01-16T01:55:32.365Z,100862.12
2019-01-16T01:58:09.222Z,100850.89
2019-01-16T02:00:51.901Z,100852.21
2019-01-16T02:03:59.220Z,100844.44
2019-01-16T02:06:48.607Z,100851.78
2019-01-16T02:09:40.489Z,100847.44
2019-01-16T02:12:28.479Z,100847.45
2019-01-16T02:15:16.246Z,100843.60
2019-01-16T02:18:09.613Z,100841.84
2019-01-16T02:21:17.329Z,100841.83
2019-01-16T02:24:06.603Z,100848.70
2019-01-16T02:26:55.081Z,100843.05
2019-01-16T02:29:44.381Z,100848.73
2019-01-16T02:32:32.168Z,100843.10
2019-01-16T02:35:24.347Z,100846.55
2019-01-16T02:38:19.079Z,100837.00
2019-01-16T02:41:08.430Z,100831.42
2019-01-16T02:44:09.536Z,100835.70
2019-01-16T02:47:13.888Z,100828.81
2019-01-16T02:50:06.168Z,100833.12
2019-01-16T02:52:59.110Z,100830.54
2019-01-16T02:55:54.640Z,100830.11
2019-01-16T02:58:42.430Z,100826.23
2019-01-16T03:01:20.998Z,100826.66
2019-01-16T03:04:08.693Z,100815.87
2019-01-16T03:07:00.654Z,100822.38
2019-01-16T03:09:50.751Z,100816.78
2019-01-16T03:12:45.822Z,100810.32
2019-01-16T03:15:50.187Z,100800.01
2019-01-16T03:18:38.197Z,100801.80
2019-01-16T03:21:26.121Z,100806.55
2019-01-16T03:24:19.575Z,100795.75
2019-01-16T03:27:07.508Z,100792.78
2019-01-16T03:30:03.111Z,100796.63
2019-01-16T03:32:58.047Z,100792.81
2019-01-16T03:36:06.529Z,100786.37
2019-01-16T03:39:01.736Z,100786.81
2019-01-16T03:42:10.350Z,100779.56
2019-01-16T03:44:58.892Z,100776.16
2019-01-16T03:48:07.692Z,100771.42
2019-01-16T03:51:08.535Z,100773.20
2019-01-16T03:57:23.810Z,100758.98
2019-01-16T04:06:55.308Z,100744.97
2019-01-16T04:09:56.669Z,100739.38
2019-01-16T04:13:05.177Z,100735.07
2019-01-16T04:15:57.129Z,100723.45
2019-01-16T04:19:05.501Z,100726.42
2019-01-16T04:22:09.368Z,100710.02
2019-01-16T04:25:10.693Z,100707.84
2019-01-16T04:28:19.114Z,100711.23
2019-01-16T04:31:22.845Z,100699.55
2019-01-16T04:34:31.379Z,100702.17
2019-01-16T04:37:26.470Z,100694.36
2019-01-16T04:40:34.896Z,100683.58
2019-01-16T04:43:31.906Z,100689.17
2019-01-16T04:49:47.588Z,100684.41
2019-01-16T04:52:56.039Z,100677.83
2019-01-16T04:56:04.520Z,100668.36
2019-01-16T04:59:06.506Z,100666.18
2019-01-16T05:02:04.792Z,100667.44
2019-01-16T05:04:56.979Z,100662.27
2019-01-16T05:07:44.603Z,100663.14
2019-01-16T05:10:33.447Z,100660.03
2019-01-16T05:13:21.604Z,100667.35
2019-01-16T05:16:14.038Z,100654.46
2019-01-16T05:19:02.064Z,100649.66
2019-01-16T05:21:59.015Z,100648.77
2019-01-16T05:24:42.655Z,100644.49
2019-01-16T05:27:35.097Z,100644.46
2019-01-16T05:30:24.449Z,100645.26
2019-01-16T05:33:13.835Z,100642.70
2019-01-16T05:36:18.049Z,100635.29
2019-01-16T05:39:07.651Z,100632.70
2019-01-16T05:41:57.013Z,100626.24
2019-01-16T05:44:49.001Z,100626.61
2019-01-16T05:47:29.441Z,100622.33
2019-01-16T05:50:13.066Z,100611.56
2019-01-16T05:53:01.975Z,100615.77
2019-01-16T05:55:49.590Z,100617.95
2019-01-16T05:58:37.274Z,100618.35
2019-01-16T06:01:45.747Z,100612.81
2019-01-16T06:04:46.528Z,100616.16
2019-01-16T06:07:27.940Z,100616.99
2019-01-16T06:10:20.099Z,100607.98
2019-01-16T06:13:12.264Z,100611.36
2019-01-16T06:16:04.194Z,100607.88
2019-01-16T06:19:08.436Z,100603.09
2019-01-16T06:21:55.434Z,100603.45
2019-01-16T06:24:47.441Z,100599.69
2019-01-16T06:27:45.499Z,100600.94
2019-01-16T06:30:47.126Z,100604.86
2019-01-16T06:33:42.134Z,100606.65
2019-01-16T06:36:26.500Z,100609.63
2019-01-16T06:39:13.840Z,100600.58
2019-01-16T06:42:03.157Z,100604.92
2019-01-16T06:44:51.110Z,100596.70
2019-01-16T06:50:58.540Z,100601.48
2019-01-16T06:53:43.291Z,100591.64
2019-01-16T06:56:31.556Z,100592.97
2019-01-16T06:59:14.260Z,100604.13
2019-01-16T07:02:12.500Z,100591.14
2019-01-16T07:05:10.564Z,100583.92
2019-01-16T07:08:06.114Z,100583.92
2019-01-16T07:11:13.894Z,100582.66
2019-01-16T07:14:18.212Z,100584.39
2019-01-16T07:17:04.175Z,100570.64
2019-01-16T07:19:51.927Z,100580.98
2019-01-16T07:22:41.285Z,100576.23
2019-01-16T07:25:33.686Z,100577.49
2019-01-16T07:28:29.866Z,100591.31
2019-01-16T07:31:24.395Z,100583.59
2019-01-16T07:34:26.173Z,100581.38
2019-01-16T07:37:13.977Z,100574.12
2019-01-16T07:39:52.690Z,100580.58
2019-01-16T07:42:46.976Z,100577.56
2019-01-16T07:45:36.941Z,100582.70
2019-01-16T07:48:28.856Z,100589.19
2019-01-16T07:51:24.206Z,100588.80
2019-01-16T07:54:13.818Z,100593.57
2019-01-16T07:57:05.187Z,100590.52
2019-01-16T07:59:52.759Z,100581.08
2019-01-16T08:02:40.216Z,100589.27
2019-01-16T08:05:27.904Z,100589.23
2019-01-16T08:08:10.565Z,100597.38
2019-01-16T08:10:59.835Z,100593.11
2019-01-16T08:13:47.373Z,100593.14
2019-01-16T08:16:39.795Z,100589.27
2019-01-16T08:19:38.092Z,100584.89
2019-01-16T08:22:25.982Z,100583.30
2019-01-16T08:25:13.809Z,100583.73
2019-01-16T08:28:13.183Z,100584.12
2019-01-16T08:31:17.708Z,100589.73
2019-01-16T08:34:07.047Z,100584.06
2019-01-16T08:36:56.861Z,100594.00
2019-01-16T08:39:49.359Z,100603.05
2019-01-16T08:42:46.287Z,100597.45
2019-01-16T08:45:32.840Z,100585.48
2019-01-16T08:48:20.807Z,100588.47
2019-01-16T08:51:03.273Z,100576.34
2019-01-16T08:53:50.977Z,100575.52
2019-01-16T08:56:58.406Z,100570.78
2019-01-16T08:59:45.935Z,100569.95
2019-01-16T09:02:38.204Z,100575.58
2019-01-16T09:05:27.047Z,100591.88
2019-01-16T09:08:19.527Z,100579.79
2019-01-16T09:11:11.479Z,100575.95
2019-01-16T09:14:12.512Z,100567.30
2019-01-16T09:17:08.833Z,100572.00
2019-01-16T09:19:47.688Z,100571.06
2019-01-16T09:22:35.396Z,100571.06
2019-01-16T09:25:14.651Z,100564.25
2019-01-16T09:28:06.940Z,100568.95
2019-01-16T09:31:03.037Z,100576.73
2019-01-16T09:34:04.006Z,100567.30
2019-01-16T09:36:44.579Z,100560.87
2019-01-16T09:39:36.439Z,100552.25
2019-01-16T09:42:31.360Z,100560.05
2019-01-16T09:45:19.010Z,100551.50
2019-01-16T09:48:06.755Z,100545.50
2019-01-16T09:51:02.137Z,100533.80
2019-01-16T09:53:51.587Z,100546.73
2019-01-16T09:56:43.999Z,100532.52
2019-01-16T09:59:30.910Z,100524.33
2019-01-16T10:02:29.307Z,100537.36
2019-01-16T10:05:17.243Z,100526.55
2019-01-16T10:08:09.423Z,100527.88
2019-01-16T10:11:06.185Z,100531.36
2019-01-16T10:13:47.659Z,100517.55
2019-01-16T10:16:37.234Z,100513.67
2019-01-16T10:19:44.328Z,100509.00
2019-01-16T10:22:32.325Z,100504.73
2019-01-16T10:25:15.209Z,100511.23
2019-01-16T10:28:10.665Z,100530.53
2019-01-16T10:31:07.703Z,100525.33
2019-01-16T10:33:55.218Z,100515.36
2019-01-16T10:36:44.915Z,100505.37
2019-01-16T10:39:34.513Z,100509.69
2019-01-16T10:42:32.496Z,100498.48
2019-01-16T10:45:13.699Z,100507.50
2019-01-16T10:48:01.433Z,100489.41
2019-01-16T10:50:49.698Z,100497.41
2019-01-16T10:53:37.506Z,100490.39
2019-01-16T10:56:19.469Z,100488.04
2019-01-16T10:58:56.522Z,100490.98
2019-01-16T11:01:49.335Z,100479.73
2019-01-16T11:04:41.530Z,100477.70
2019-01-16T11:07:30.922Z,100463.41
2019-01-16T11:10:23.031Z,100449.20
2019-01-16T11:13:12.229Z,100453.86
2019-01-16T11:16:00.158Z,100443.20
2019-01-16T11:18:52.379Z,100437.05
2019-01-16T11:21:40.576Z,100434.39
2019-01-16T11:24:47.923Z,100428.35
2019-01-16T11:27:41.261Z,100429.52
2019-01-16T11:30:30.612Z,100430.00
2019-01-16T11:33:19.800Z,100423.41
2019-01-16T11:36:03.895Z,100403.63
2019-01-16T11:38:55.964Z,100404.02
2019-01-16T11:41:44.570Z,100400.31
2019-01-16T11:44:42.610Z,100401.64
2019-01-16T11:47:31.936Z,100395.69
2019-01-16T11:50:16.998Z,100397.58
2019-01-16T11:53:24.372Z,100402.87
2019-01-16T11:56:16.845Z,100381.08
2019-01-16T11:59:06.328Z,100385.30
2019-01-16T12:01:45.240Z,100381.03
2019-01-16T12:04:35.107Z,100381.55
2019-01-16T12:07:24.428Z,100384.25
2019-01-16T12:10:09.327Z,100369.10
2019-01-16T12:13:04.188Z,100358.45
2019-01-16T12:15:51.746Z,100353.24
2019-01-16T12:18:39.531Z,100357.95
2019-01-16T12:21:26.156Z,100345.02
2019-01-16T12:24:06.560Z,100337.70
2019-01-16T12:27:14.038Z,100335.52
2019-01-16T12:30:09.491Z,100336.33
2019-01-16T12:33:02.332Z,100322.98
2019-01-16T12:35:50.518Z,100321.27
2019-01-16T12:38:39.075Z,100316.05
2019-01-16T12:41:26.986Z,100295.00
2019-01-16T12:44:19.699Z,100291.94
2019-01-16T12:47:12.041Z,100286.77
2019-01-16T12:50:00.572Z,100282.95
2019-01-16T12:56:14.733Z,100258.83
2019-01-16T12:59:18.624Z,100258.35
2019-01-16T13:02:27.275Z,100251.03
2019-01-16T13:05:28.913Z,100259.21
2019-01-16T13:08:38.780Z,100253.14
2019-01-16T13:11:40.710Z,100236.01
2019-01-16T13:14:48.081Z,100230.36
2019-01-16T13:17:52.343Z,100224.67
2019-01-16T13:20:37.425Z,100218.50
2019-01-16T13:23:26.941Z,100213.82
2019-01-16T13:26:14.967Z,100204.39
2019-01-16T13:29:03.042Z,100199.94
2019-01-16T13:31:50.701Z,100207.74
2019-01-16T13:34:38.479Z,100200.74
2019-01-16T13:37:47.205Z,100199.84
2019-01-16T13:40:55.859Z,100199.88
2019-01-16T13:44:04.304Z,100181.91
2019-01-16T13:47:06.052Z,100178.49
2019-01-16T13:50:14.502Z,100177.64
2019-01-16T13:53:15.636Z,100168.11
2019-01-16T13:56:24.378Z,100168.21
2019-01-16T13:59:21.406Z,100159.98
2019-01-16T14:02:29.831Z,100152.28
2019-01-16T14:05:20.866Z,100145.91
2019-01-16T14:08:09.001Z,100133.72
2019-01-16T14:11:10.415Z,100136.30
2019-01-16T14:14:08.702Z,100122.66
2019-01-16T14:17:07.093Z,100135.20
2019-01-16T14:19:55.873Z,100113.95
2019-01-16T14:22:45.231Z,100107.11
2019-01-16T14:25:49.688Z,100115.63
2019-01-16T14:28:51.074Z,100115.14
2019-01-16T14:31:39.116Z,100109.45
2019-01-16T14:34:22.862Z,100111.59
2019-01-16T14:37:22.161Z,100105.95
2019-01-16T14:40:17.324Z,100089.67
2019-01-16T14:43:12.545Z,100093.94
2019-01-16T14:46:13.561Z,100080.21
2019-01-16T14:48:54.126Z,100083.33
2019-01-16T14:51:41.693Z,100086.87
2019-01-16T14:54:42.900Z,100082.52
2019-01-16T14:57:30.901Z,100067.59
2019-01-16T15:00:34.897Z,100065.82
2019-01-16T15:03:22.884Z,100062.42
2019-01-16T15:06:10.944Z,100058.46
2019-01-16T15:09:05.995Z,100051.19
2019-01-16T15:11:49.477Z,100056.69
2019-01-16T15:14:39.069Z,100054.48
2019-01-16T15:17:27.274Z,100053.23
2019-01-16T15:20:31.381Z,100051.51
2019-01-16T15:23:12.375Z,100039.41
2019-01-16T15:26:19.441Z,100035.91
2019-01-16T15:29:11.152Z,100033.37
2019-01-16T15:32:09.485Z,100032.95
2019-01-16T15:34:57.231Z,100028.69
2019-01-16T15:37:38.361Z,100024.75
2019-01-16T15:40:29.266Z,100022.62
2019-01-16T15:43:21.425Z,100019.21
2019-01-16T15:46:12.728Z,100016.25
2019-01-16T15:48:58.100Z,100009.85
2019-01-16T15:51:46.380Z,100001.36
2019-01-16T15:54:32.538Z,99990.31
2019-01-16T15:57:27.316Z,99994.41
2019-01-16T16:00:16.638Z,99983.84
2019-01-16T16:03:05.975Z,99976.10
2019-01-16T16:05:55.564Z,99975.20
2019-01-16T16:09:00.038Z,99965.34
2019-01-16T16:11:52.129Z,99958.02
2019-01-16T16:14:44.640Z,99963.20
2019-01-16T16:17:52.047Z,99955.98
2019-01-16T16:20:39.578Z,99944.97
2019-01-16T16:23:25.523Z,99946.72
2019-01-16T16:26:18.890Z,99939.78
2019-01-16T16:29:06.403Z,99940.22
2019-01-16T16:32:07.650Z,99932.75
2019-01-16T16:35:00.494Z,99926.06
2019-01-16T16:38:01.461Z,99924.77
2019-01-16T16:40:40.002Z,99922.58
2019-01-16T16:43:40.999Z,99920.44
2019-01-16T16:46:35.915Z,99926.08
2019-01-16T16:49:23.719Z,99924.35
2019-01-16T16:52:25.923Z,99909.83
2019-01-16T16:55:16.464Z,99922.36
2019-01-16T16:58:11.722Z,99905.48
2019-01-16T17:01:06.793Z,99911.48
2019-01-16T17:03:58.623Z,99908.81
2019-01-16T17:06:46.412Z,99904.45
2019-01-16T17:09:23.551Z,99904.98
2019-01-16T17:12:28.086Z,99908.86
2019-01-16T17:15:29.331Z,99905.03
2019-01-16T17:18:17.335Z,99905.05
2019-01-16T17:21:09.724Z,99902.90
2019-01-16T17:24:00.757Z,99904.28
2019-01-16T17:27:05.006Z,99901.33
2019-01-16T17:30:00.254Z,99893.54
2019-01-16T17:32:38.836Z,99887.13
2019-01-16T17:35:46.654Z,99878.03
2019-01-16T17:38:37.354Z,99879.34
2019-01-16T17:41:44.922Z,99880.30
2019-01-16T17:44:32.703Z,99881.17
2019-01-16T17:47:20.712Z,99874.01
2019-01-16T17:50:18.597Z,99877.08
2019-01-16T17:53:06.387Z,99873.22
2019-01-16T17:56:04.612Z,99876.59
2019-01-16T17:59:05.647Z,99867.98
2019-01-16T18:01:54.982Z,99869.33
2019-01-16T18:04:51.815Z,99862.41
2019-01-16T18:07:41.721Z,99869.34
2019-01-16T18:10:31.329Z,99875.03
2019-01-16T18:13:39.802Z,99869.45
2019-01-16T18:16:42.988Z,99870.27
2019-01-16T18:19:51.533Z,99865.91
2019-01-16T18:22:52.894Z,99858.59
2019-01-16T18:26:01.699Z,99860.30
2019-01-16T18:29:05.768Z,99869.34
2019-01-16T18:32:14.269Z,99871.65
2019-01-16T18:35:15.291Z,99855.69
2019-01-16T18:38:13.196Z,99862.19
2019-01-16T18:41:01.183Z,99864.14
2019-01-16T18:43:53.278Z,99865.42
2019-01-16T18:46:54.311Z,99861.45
2019-01-16T18:49:38.621Z,99855.48
2019-01-16T18:52:39.002Z,99863.64
2019-01-16T18:55:28.839Z,99855.46
2019-01-16T18:58:24.387Z,99833.52
2019-01-16T19:04:32.780Z,99847.94
2019-01-16T19:07:33.989Z,99839.75
2019-01-16T19:10:24.073Z,99858.64
2019-01-16T19:13:28.415Z,99856.97
2019-01-16T19:16:16.829Z,99850.03
2019-01-16T19:19:14.824Z,99840.94
2019-01-16T19:21:56.872Z,99835.77
2019-01-16T19:24:48.985Z,99825.45
2019-01-16T19:27:36.638Z,99820.78
2019-01-16T19:30:48.578Z,99808.68
2019-01-16T19:33:43.953Z,99814.33
2019-01-16T19:36:31.988Z,99816.47
2019-01-16T19:39:36.848Z,99815.62
2019-01-16T19:42:41.516Z,99804.00
2019-01-16T19:45:40.601Z,99808.41
2019-01-16T19:48:30.083Z,99801.09
2019-01-16T19:51:19.720Z,99785.29
2019-01-16T19:54:07.464Z,99779.20
2019-01-16T19:57:00.529Z,99787.76
2019-01-16T19:59:48.473Z,99785.61
2019-01-16T20:02:38.226Z,99787.39
2019-01-16T20:05:26.836Z,99774.48
2019-01-16T20:08:09.293Z,99770.13
2019-01-16T20:10:56.881Z,99777.50
2019-01-16T20:13:41.510Z,99782.17
2019-01-16T20:16:23.391Z,99768.78
2019-01-16T20:19:10.673Z,99768.91
2019-01-16T20:21:52.918Z,99765.40
2019-01-16T20:24:51.561Z,99766.32
2019-01-16T20:27:39.791Z,99759.91
2019-01-16T20:30:27.340Z,99750.08
2019-01-16T20:33:26.042Z,99750.95
2019-01-16T20:36:10.915Z,99744.80
2019-01-16T20:39:11.578Z,99741.80
2019-01-16T20:41:58.371Z,99740.92
2019-01-16T20:44:45.057Z,99744.75
2019-01-16T20:47:49.333Z,99740.00
2019-01-16T20:50:47.737Z,99732.27
2019-01-16T20:53:37.139Z,99728.29
2019-01-16T20:56:26.975Z,99736.94
2019-01-16T20:59:16.444Z,99731.78
2019-01-16T21:02:07.311Z,99732.14
2019-01-16T21:05:07.993Z,99729.09
2019-01-16T21:08:06.207Z,99717.14
2019-01-16T21:10:54.113Z,99721.83
2019-01-16T21:13:46.408Z,99720.97
2019-01-16T21:16:30.488Z,99728.09
2019-01-16T21:19:26.034Z,99739.40
2019-01-16T21:22:14.130Z,99738.49
2019-01-16T21:25:03.519Z,99739.34
2019-01-16T21:28:04.839Z,99720.84
2019-01-16T21:30:45.722Z,99716.42
2019-01-16T21:33:33.571Z,99710.83
2019-01-16T21:36:25.693Z,99709.95
2019-01-16T21:39:13.525Z,99698.72
2019-01-16T21:42:02.179Z,99702.21
2019-01-16T21:44:45.031Z,99697.00
2019-01-16T21:47:39.764Z,99701.28
2019-01-16T21:50:35.692Z,99698.21
2019-01-16T21:53:30.336Z,99699.87
2019-01-16T21:56:14.306Z,99689.54
2019-01-16T21:58:55.630Z,99690.05
2019-01-16T22:01:53.673Z,99682.18
2019-01-16T22:04:48.681Z,99674.06
2019-01-16T22:07:42.285Z,99688.63
2019-01-16T22:10:49.713Z,99683.83
2019-01-16T22:13:28.982Z,99682.55
2019-01-16T22:16:08.106Z,99681.67
2019-01-16T22:18:55.710Z,99676.94
2019-01-16T22:21:42.200Z,99676.39
2019-01-16T22:24:34.380Z,99669.01
2019-01-16T22:27:22.484Z,99671.57
2019-01-16T22:30:10.695Z,99680.61
2019-01-16T22:33:11.606Z,99677.12
2019-01-16T22:35:50.986Z,99667.09
2019-01-16T22:38:40.822Z,99665.94
2019-01-16T22:41:36.439Z,99665.50
2019-01-16T22:44:30.493Z,99670.17
2019-01-16T22:47:22.676Z,99667.15
2019-01-16T22:50:10.347Z,99658.98
2019-01-16T22:53:00.743Z,99656.38
2019-01-16T22:55:50.148Z,99655.11
2019-01-16T22:58:48.528Z,99646.44
2019-01-16T23:01:25.864Z,99652.76
2019-01-16T23:04:24.128Z,99644.94
2019-01-16T23:07:13.551Z,99638.26
2019-01-16T23:10:01.035Z,99641.80
2019-01-16T23:13:05.381Z,99638.28
2019-01-16T23:15:54.743Z,99628.88
2019-01-16T23:18:44.083Z,99629.71
2019-01-16T23:21:42.044Z,99622.17
2019-01-16T23:24:31.699Z,99626.77
2019-01-16T23:27:19.268Z,99629.17
2019-01-16T23:29:57.862Z,99612.41
2019-01-16T23:32:43.097Z,99623.28
2019-01-16T23:35:50.695Z,99624.16
2019-01-16T23:38:38.256Z,99634.16
2019-01-16T23:41:37.523Z,99628.34
2019-01-16T23:44:31.109Z,99617.78
2019-01-16T23:47:18.596Z,99614.82
2019-01-16T23:50:10.697Z,99634.13
2019-01-16T23:52:48.509Z,99641.94
2019-01-16T23:55:36.534Z,99621.89
2019-01-16T23:58:26.791Z,99617.19
